Youngstown, NY

12:29 PM EDT on October 02, 2014 (GMT -0400)
Chautauqua County-Dunkirk | Change Station
CLOSE
Current Station
Airport
Location: Dunkirk,
Elevation: 692 ft
Nearby Weather Stations

Elev 692 ft 42.49 °N, 79.28 °W | Updated 36 minutes ago

Mostly Cloudy
Mostly Cloudy
67 °F
Feels Like 67 °F
N
13
Wind Variable Wind from SSW
Gusts 24 mph

Today
High -- | Low -- °F
--% Chance of Precip.
Yesterday
High -- | Low -- °F
Precip. -- in
7:14 AM 6:55 PM
First Quarter, 60% visible
Pressure 30.09 in
Visibility 10.0 miles
Clouds Few 2300 ft
Dew Point 57 °F
Humidity 70%
Rainfall 0.00 in
Snow Depth Not available.
UV 5 out of 12
Pollen 3.40 out of 12
Air Quality Not available.
Flu Activity Not available.
METAR KDKK 021553Z AUTO 21011G21KT 10SM FEW023 19/14 A3009 RMK AO2 SLP189 T01940139

More Conditions Fewer Conditions

Pressure 30.09 in
Visibility 10.0 miles
Clouds Few 2300 ft
Dew Point 57 °F
Humidity 70%
Rainfall 0.00 in
Snow Depth Not available.
UV 5 out of 12
Pollen 3.40 out of 12
Air Quality Not available.
Flu Activity Not available.
METAR KDKK 021553Z AUTO 21011G21KT 10SM FEW023 19/14 A3009 RMK AO2 SLP189 T01940139

More Conditions Fewer Conditions

10-Day Weather Forecast

Almanac

Astronomy

Oct. 02, 2014 Rise Set
Actual Time 7:14 AM EDT 6:55 PM EDT
Civil Twilight 6:46 AM EDT 7:23 PM EDT
Nautical Twilight 6:13 AM EDT 7:56 PM EDT
Astronomical Twilight 5:39 AM EDT 8:30 PM EDT
Moon 3:08 PM EDT 12:20 AM EDT
Length of Visible Light 12h 37m
Length of Day
11h 40m
Tomorrow will be 2m 54s shorter.
First Quarter, 60% of the Moon is Illuminated
Today
First Quarter
Oct 8
Full
Oct 15
Last Quarter
Oct 23
New
Oct 30
First Quarter

Today's Extremes

State Highs State Lows

Community

WunderPhotos

Upload Photos

1,758,290 photos uploaded!

WunderBlogs® & News

Nearby

Air Quality

  Air Quality AQ Index Pollutant
Thursday Good
PM2.5

Snow Depth

Station Depth Elevation
No new snow has been reported.

Earthquake Activity

City Distance Mag. Time & Date
No recent earthquake activity has been reported nearby.
Minimum magnitude displayed is 2.5.

Coastal Water Temperatures

Place Temperature
Buffalo, NY 66.9 °F

Nearby Weather Stations